sensor_id;sensor_type;location;lat;lon;timestamp;P1;durP1;ratioP1;P2;durP2;ratioP2
16472;SDS011;8347;52.486;13.432;2022-12-07T00:00:27;18.20;;;7.90;;
16472;SDS011;8347;52.486;13.432;2022-12-07T00:03:13;17.88;;;9.43;;
16472;SDS011;8347;52.486;13.432;2022-12-07T00:06:00;13.40;;;7.65;;
16472;SDS011;8347;52.486;13.432;2022-12-07T00:08:47;19.23;;;9.35;;
16472;SDS011;8347;52.486;13.432;2022-12-07T00:11:34;18.33;;;9.18;;
16472;SDS011;8347;52.486;13.432;2022-12-07T00:14:20;15.55;;;8.25;;
16472;SDS011;8347;52.486;13.432;2022-12-07T00:17:07;19.65;;;9.20;;
16472;SDS011;8347;52.486;13.432;2022-12-07T00:19:54;16.48;;;8.35;;
16472;SDS011;8347;52.486;13.432;2022-12-07T00:22:40;13.60;;;8.23;;
16472;SDS011;8347;52.486;13.432;2022-12-07T00:25:27;14.60;;;10.02;;
16472;SDS011;8347;52.486;13.432;2022-12-07T00:28:13;19.90;;;9.73;;
16472;SDS011;8347;52.486;13.432;2022-12-07T00:31:10;17.02;;;9.63;;
16472;SDS011;8347;52.486;13.432;2022-12-07T00:33:57;16.90;;;9.55;;
16472;SDS011;8347;52.486;13.432;2022-12-07T00:36:44;15.65;;;9.07;;
16472;SDS011;8347;52.486;13.432;2022-12-07T00:39:30;14.27;;;8.57;;
16472;SDS011;8347;52.486;13.432;2022-12-07T00:42:17;15.65;;;7.90;;
16472;SDS011;8347;52.486;13.432;2022-12-07T00:45:03;14.93;;;8.57;;
16472;SDS011;8347;52.486;13.432;2022-12-07T00:47:50;15.90;;;8.93;;
16472;SDS011;8347;52.486;13.432;2022-12-07T00:50:36;17.58;;;8.95;;
16472;SDS011;8347;52.486;13.432;2022-12-07T00:53:23;13.65;;;8.40;;
16472;SDS011;8347;52.486;13.432;2022-12-07T00:59:06;14.05;;;7.18;;
16472;SDS011;8347;52.486;13.432;2022-12-07T01:01:52;13.95;;;8.40;;
16472;SDS011;8347;52.486;13.432;2022-12-07T01:04:39;11.85;;;7.32;;
16472;SDS011;8347;52.486;13.432;2022-12-07T01:07:25;17.30;;;8.50;;
16472;SDS011;8347;52.486;13.432;2022-12-07T01:10:12;12.68;;;7.85;;
16472;SDS011;8347;52.486;13.432;2022-12-07T01:12:59;13.82;;;8.25;;
16472;SDS011;8347;52.486;13.432;2022-12-07T01:15:46;13.85;;;8.13;;
16472;SDS011;8347;52.486;13.432;2022-12-07T01:18:33;12.38;;;7.65;;
16472;SDS011;8347;52.486;13.432;2022-12-07T01:21:30;13.50;;;8.10;;
16472;SDS011;8347;52.486;13.432;2022-12-07T01:24:22;15.05;;;8.02;;
16472;SDS011;8347;52.486;13.432;2022-12-07T01:27:09;12.18;;;7.95;;
16472;SDS011;8347;52.486;13.432;2022-12-07T01:29:55;10.15;;;6.75;;
16472;SDS011;8347;52.486;13.432;2022-12-07T01:32:42;14.15;;;7.25;;
16472;SDS011;8347;52.486;13.432;2022-12-07T01:35:28;12.90;;;6.85;;
16472;SDS011;8347;52.486;13.432;2022-12-07T01:38:15;13.93;;;7.93;;
16472;SDS011;8347;52.486;13.432;2022-12-07T01:41:01;11.07;;;7.45;;
16472;SDS011;8347;52.486;13.432;2022-12-07T01:46:55;9.55;;;6.25;;
16472;SDS011;8347;52.486;13.432;2022-12-07T01:49:46;9.00;;;6.35;;
16472;SDS011;8347;52.486;13.432;2022-12-07T01:52:35;9.38;;;6.10;;
16472;SDS011;8347;52.486;13.432;2022-12-07T01:55:22;11.18;;;6.28;;
16472;SDS011;8347;52.486;13.432;2022-12-07T01:58:10;11.10;;;6.82;;
16472;SDS011;8347;52.486;13.432;2022-12-07T02:00:57;10.38;;;5.88;;
16472;SDS011;8347;52.486;13.432;2022-12-07T02:03:44;9.27;;;5.75;;
16472;SDS011;8347;52.486;13.432;2022-12-07T02:06:31;11.27;;;5.47;;
16472;SDS011;8347;52.486;13.432;2022-12-07T02:09:17;8.95;;;5.47;;
16472;SDS011;8347;52.486;13.432;2022-12-07T02:12:04;9.25;;;6.13;;
16472;SDS011;8347;52.486;13.432;2022-12-07T02:14:51;10.35;;;5.63;;
16472;SDS011;8347;52.486;13.432;2022-12-07T02:17:42;8.63;;;6.07;;
16472;SDS011;8347;52.486;13.432;2022-12-07T02:20:49;9.38;;;5.50;;
16472;SDS011;8347;52.486;13.432;2022-12-07T02:30:01;8.68;;;5.07;;
16472;SDS011;8347;52.486;13.432;2022-12-07T02:33:05;10.68;;;6.10;;
16472;SDS011;8347;52.486;13.432;2022-12-07T02:36:04;12.77;;;5.85;;
16472;SDS011;8347;52.486;13.432;2022-12-07T02:38:56;6.20;;;4.53;;
16472;SDS011;8347;52.486;13.432;2022-12-07T02:41:47;8.43;;;5.53;;
16472;SDS011;8347;52.486;13.432;2022-12-07T02:44:34;9.60;;;5.82;;
16472;SDS011;8347;52.486;13.432;2022-12-07T02:47:21;9.68;;;6.47;;
16472;SDS011;8347;52.486;13.432;2022-12-07T02:50:08;8.65;;;6.07;;
16472;SDS011;8347;52.486;13.432;2022-12-07T02:52:55;10.73;;;5.60;;
16472;SDS011;8347;52.486;13.432;2022-12-07T02:55:42;10.00;;;5.35;;
16472;SDS011;8347;52.486;13.432;2022-12-07T03:08:02;9.40;;;5.68;;
16472;SDS011;8347;52.486;13.432;2022-12-07T03:13:49;8.98;;;5.53;;
16472;SDS011;8347;52.486;13.432;2022-12-07T03:16:50;8.82;;;6.10;;
16472;SDS011;8347;52.486;13.432;2022-12-07T03:19:38;10.38;;;5.97;;
16472;SDS011;8347;52.486;13.432;2022-12-07T03:22:27;10.20;;;6.40;;
16472;SDS011;8347;52.486;13.432;2022-12-07T03:25:15;10.25;;;6.60;;
16472;SDS011;8347;52.486;13.432;2022-12-07T03:28:03;8.85;;;6.20;;
16472;SDS011;8347;52.486;13.432;2022-12-07T03:33:59;9.32;;;5.72;;
16472;SDS011;8347;52.486;13.432;2022-12-07T03:36:54;8.77;;;6.22;;
16472;SDS011;8347;52.486;13.432;2022-12-07T03:39:45;11.98;;;6.20;;
16472;SDS011;8347;52.486;13.432;2022-12-07T03:42:42;14.82;;;6.93;;
16472;SDS011;8347;52.486;13.432;2022-12-07T03:45:35;9.40;;;5.57;;
16472;SDS011;8347;52.486;13.432;2022-12-07T03:48:27;8.90;;;5.55;;
16472;SDS011;8347;52.486;13.432;2022-12-07T03:51:22;8.75;;;5.70;;
16472;SDS011;8347;52.486;13.432;2022-12-07T03:54:12;10.88;;;6.55;;
16472;SDS011;8347;52.486;13.432;2022-12-07T03:56:59;11.75;;;6.85;;
16472;SDS011;8347;52.486;13.432;2022-12-07T03:59:48;12.23;;;6.25;;
16472;SDS011;8347;52.486;13.432;2022-12-07T04:02:35;9.95;;;6.68;;
16472;SDS011;8347;52.486;13.432;2022-12-07T04:05:22;11.40;;;6.07;;
16472;SDS011;8347;52.486;13.432;2022-12-07T04:08:09;11.65;;;7.03;;
16472;SDS011;8347;52.486;13.432;2022-12-07T04:10:56;12.88;;;7.47;;
16472;SDS011;8347;52.486;13.432;2022-12-07T04:13:42;11.32;;;6.85;;
16472;SDS011;8347;52.486;13.432;2022-12-07T04:16:49;12.13;;;7.00;;
16472;SDS011;8347;52.486;13.432;2022-12-07T04:19:37;15.70;;;7.57;;
16472;SDS011;8347;52.486;13.432;2022-12-07T04:22:23;10.10;;;6.32;;
16472;SDS011;8347;52.486;13.432;2022-12-07T04:25:09;15.82;;;8.23;;
16472;SDS011;8347;52.486;13.432;2022-12-07T04:27:56;12.40;;;7.57;;
16472;SDS011;8347;52.486;13.432;2022-12-07T04:30:42;15.45;;;9.15;;
16472;SDS011;8347;52.486;13.432;2022-12-07T04:33:29;14.35;;;8.18;;
16472;SDS011;8347;52.486;13.432;2022-12-07T04:36:15;16.52;;;8.80;;
16472;SDS011;8347;52.486;13.432;2022-12-07T04:39:02;14.55;;;8.48;;
16472;SDS011;8347;52.486;13.432;2022-12-07T04:41:49;15.18;;;9.48;;
16472;SDS011;8347;52.486;13.432;2022-12-07T04:44:36;19.15;;;11.40;;
16472;SDS011;8347;52.486;13.432;2022-12-07T04:47:22;17.02;;;9.52;;
16472;SDS011;8347;52.486;13.432;2022-12-07T04:50:09;20.88;;;10.93;;
16472;SDS011;8347;52.486;13.432;2022-12-07T04:52:56;19.33;;;10.88;;
16472;SDS011;8347;52.486;13.432;2022-12-07T04:55:43;23.42;;;11.82;;
16472;SDS011;8347;52.486;13.432;2022-12-07T04:58:30;23.80;;;11.60;;
16472;SDS011;8347;52.486;13.432;2022-12-07T05:01:16;21.58;;;12.18;;
16472;SDS011;8347;52.486;13.432;2022-12-07T05:04:03;24.52;;;13.48;;
16472;SDS011;8347;52.486;13.432;2022-12-07T05:06:50;22.45;;;11.65;;
16472;SDS011;8347;52.486;13.432;2022-12-07T05:09:36;24.60;;;12.65;;
16472;SDS011;8347;52.486;13.432;2022-12-07T05:12:23;24.48;;;12.07;;
16472;SDS011;8347;52.486;13.432;2022-12-07T05:15:09;20.42;;;12.27;;
16472;SDS011;8347;52.486;13.432;2022-12-07T05:17:56;24.48;;;13.50;;
16472;SDS011;8347;52.486;13.432;2022-12-07T05:20:43;24.45;;;12.07;;
16472;SDS011;8347;52.486;13.432;2022-12-07T05:23:30;24.13;;;12.73;;
16472;SDS011;8347;52.486;13.432;2022-12-07T05:26:16;30.35;;;13.65;;
16472;SDS011;8347;52.486;13.432;2022-12-07T05:29:03;20.75;;;11.77;;
16472;SDS011;8347;52.486;13.432;2022-12-07T05:31:50;28.77;;;13.32;;
16472;SDS011;8347;52.486;13.432;2022-12-07T05:34:36;26.55;;;13.98;;
16472;SDS011;8347;52.486;13.432;2022-12-07T05:37:23;29.30;;;13.13;;
16472;SDS011;8347;52.486;13.432;2022-12-07T05:40:10;27.63;;;13.60;;
16472;SDS011;8347;52.486;13.432;2022-12-07T05:42:56;27.13;;;12.77;;
16472;SDS011;8347;52.486;13.432;2022-12-07T05:45:43;23.17;;;13.10;;
16472;SDS011;8347;52.486;13.432;2022-12-07T05:48:29;24.10;;;12.93;;
16472;SDS011;8347;52.486;13.432;2022-12-07T05:51:16;27.80;;;14.48;;
16472;SDS011;8347;52.486;13.432;2022-12-07T05:54:02;27.00;;;14.05;;
16472;SDS011;8347;52.486;13.432;2022-12-07T05:56:49;26.45;;;13.75;;
16472;SDS011;8347;52.486;13.432;2022-12-07T05:59:36;29.85;;;13.10;;
16472;SDS011;8347;52.486;13.432;2022-12-07T06:02:22;27.35;;;13.90;;
16472;SDS011;8347;52.486;13.432;2022-12-07T06:05:09;25.60;;;13.95;;
16472;SDS011;8347;52.486;13.432;2022-12-07T06:07:55;31.55;;;15.05;;
16472;SDS011;8347;52.486;13.432;2022-12-07T06:10:42;30.67;;;14.15;;
16472;SDS011;8347;52.486;13.432;2022-12-07T06:13:28;30.40;;;15.75;;
16472;SDS011;8347;52.486;13.432;2022-12-07T06:16:14;31.25;;;15.00;;
16472;SDS011;8347;52.486;13.432;2022-12-07T06:19:01;28.73;;;14.68;;
16472;SDS011;8347;52.486;13.432;2022-12-07T06:21:47;31.20;;;14.45;;
16472;SDS011;8347;52.486;13.432;2022-12-07T06:24:34;31.77;;;15.80;;
16472;SDS011;8347;52.486;13.432;2022-12-07T06:27:21;24.27;;;14.38;;
16472;SDS011;8347;52.486;13.432;2022-12-07T06:30:07;29.63;;;14.43;;
16472;SDS011;8347;52.486;13.432;2022-12-07T06:32:54;35.53;;;15.52;;
16472;SDS011;8347;52.486;13.432;2022-12-07T06:35:41;34.17;;;16.10;;
16472;SDS011;8347;52.486;13.432;2022-12-07T06:38:27;29.73;;;13.90;;
16472;SDS011;8347;52.486;13.432;2022-12-07T06:41:13;30.15;;;14.70;;
16472;SDS011;8347;52.486;13.432;2022-12-07T06:44:00;33.53;;;14.80;;
16472;SDS011;8347;52.486;13.432;2022-12-07T06:46:46;34.58;;;15.57;;
16472;SDS011;8347;52.486;13.432;2022-12-07T06:49:33;27.27;;;14.05;;
16472;SDS011;8347;52.486;13.432;2022-12-07T06:52:20;28.08;;;14.65;;
16472;SDS011;8347;52.486;13.432;2022-12-07T06:55:06;33.13;;;16.65;;
16472;SDS011;8347;52.486;13.432;2022-12-07T06:57:53;33.63;;;16.73;;
16472;SDS011;8347;52.486;13.432;2022-12-07T07:00:40;34.13;;;16.95;;
16472;SDS011;8347;52.486;13.432;2022-12-07T07:03:26;31.90;;;16.20;;
16472;SDS011;8347;52.486;13.432;2022-12-07T07:06:13;34.55;;;17.08;;
16472;SDS011;8347;52.486;13.432;2022-12-07T07:09:00;34.75;;;17.45;;
16472;SDS011;8347;52.486;13.432;2022-12-07T07:11:47;32.78;;;16.42;;
16472;SDS011;8347;52.486;13.432;2022-12-07T07:14:33;33.63;;;16.38;;
16472;SDS011;8347;52.486;13.432;2022-12-07T07:17:20;33.10;;;16.65;;
16472;SDS011;8347;52.486;13.432;2022-12-07T07:20:07;30.17;;;16.08;;
16472;SDS011;8347;52.486;13.432;2022-12-07T07:22:54;31.83;;;17.23;;
16472;SDS011;8347;52.486;13.432;2022-12-07T07:25:41;32.40;;;16.08;;
16472;SDS011;8347;52.486;13.432;2022-12-07T07:28:28;34.38;;;17.63;;
16472;SDS011;8347;52.486;13.432;2022-12-07T07:31:14;33.90;;;17.50;;
16472;SDS011;8347;52.486;13.432;2022-12-07T07:34:01;36.67;;;15.95;;
16472;SDS011;8347;52.486;13.432;2022-12-07T07:36:47;31.55;;;15.80;;
16472;SDS011;8347;52.486;13.432;2022-12-07T07:39:34;28.48;;;16.02;;
16472;SDS011;8347;52.486;13.432;2022-12-07T07:42:20;31.23;;;15.90;;
16472;SDS011;8347;52.486;13.432;2022-12-07T07:45:07;30.75;;;15.75;;
16472;SDS011;8347;52.486;13.432;2022-12-07T07:47:54;29.98;;;14.98;;
16472;SDS011;8347;52.486;13.432;2022-12-07T07:50:41;38.50;;;16.00;;
16472;SDS011;8347;52.486;13.432;2022-12-07T07:53:27;24.88;;;12.77;;
16472;SDS011;8347;52.486;13.432;2022-12-07T07:56:14;26.98;;;13.27;;
16472;SDS011;8347;52.486;13.432;2022-12-07T07:59:01;30.50;;;14.18;;
16472;SDS011;8347;52.486;13.432;2022-12-07T08:01:47;24.40;;;13.55;;
16472;SDS011;8347;52.486;13.432;2022-12-07T08:04:34;24.70;;;14.65;;
16472;SDS011;8347;52.486;13.432;2022-12-07T08:07:22;31.50;;;15.43;;
16472;SDS011;8347;52.486;13.432;2022-12-07T08:10:09;25.25;;;11.82;;
16472;SDS011;8347;52.486;13.432;2022-12-07T08:12:56;23.50;;;13.15;;
16472;SDS011;8347;52.486;13.432;2022-12-07T08:16:02;18.63;;;10.57;;
16472;SDS011;8347;52.486;13.432;2022-12-07T08:18:49;18.95;;;9.05;;
16472;SDS011;8347;52.486;13.432;2022-12-07T08:21:37;20.13;;;10.73;;
16472;SDS011;8347;52.486;13.432;2022-12-07T08:24:23;16.70;;;9.60;;
16472;SDS011;8347;52.486;13.432;2022-12-07T08:27:10;19.83;;;10.07;;
16472;SDS011;8347;52.486;13.432;2022-12-07T08:29:57;17.13;;;8.85;;
16472;SDS011;8347;52.486;13.432;2022-12-07T08:32:44;12.73;;;8.07;;
16472;SDS011;8347;52.486;13.432;2022-12-07T08:35:32;15.32;;;8.45;;
16472;SDS011;8347;52.486;13.432;2022-12-07T08:38:19;13.95;;;9.00;;
16472;SDS011;8347;52.486;13.432;2022-12-07T08:41:06;14.50;;;7.57;;
16472;SDS011;8347;52.486;13.432;2022-12-07T08:43:53;12.00;;;7.32;;
16472;SDS011;8347;52.486;13.432;2022-12-07T08:46:50;10.32;;;6.90;;
16472;SDS011;8347;52.486;13.432;2022-12-07T08:49:39;13.82;;;6.90;;
16472;SDS011;8347;52.486;13.432;2022-12-07T08:52:28;12.25;;;7.60;;
16472;SDS011;8347;52.486;13.432;2022-12-07T08:55:15;10.45;;;5.55;;
16472;SDS011;8347;52.486;13.432;2022-12-07T08:58:02;8.18;;;5.53;;
16472;SDS011;8347;52.486;13.432;2022-12-07T09:00:49;6.82;;;4.47;;
16472;SDS011;8347;52.486;13.432;2022-12-07T09:03:36;6.38;;;4.32;;
16472;SDS011;8347;52.486;13.432;2022-12-07T09:06:22;4.63;;;3.75;;
16472;SDS011;8347;52.486;13.432;2022-12-07T09:09:09;6.38;;;4.20;;
16472;SDS011;8347;52.486;13.432;2022-12-07T09:11:56;6.28;;;4.72;;
16472;SDS011;8347;52.486;13.432;2022-12-07T09:14:43;7.22;;;3.90;;
16472;SDS011;8347;52.486;13.432;2022-12-07T09:17:31;4.38;;;2.85;;
16472;SDS011;8347;52.486;13.432;2022-12-07T09:20:18;6.65;;;3.83;;
16472;SDS011;8347;52.486;13.432;2022-12-07T09:23:05;8.38;;;4.63;;
16472;SDS011;8347;52.486;13.432;2022-12-07T09:25:52;3.58;;;2.63;;
16472;SDS011;8347;52.486;13.432;2022-12-07T09:28:39;4.05;;;3.45;;
16472;SDS011;8347;52.486;13.432;2022-12-07T09:31:25;4.53;;;2.97;;
16472;SDS011;8347;52.486;13.432;2022-12-07T09:34:12;5.30;;;3.58;;
16472;SDS011;8347;52.486;13.432;2022-12-07T09:37:00;4.18;;;3.05;;
16472;SDS011;8347;52.486;13.432;2022-12-07T09:39:48;5.78;;;3.38;;
16472;SDS011;8347;52.486;13.432;2022-12-07T09:42:38;4.55;;;3.90;;
16472;SDS011;8347;52.486;13.432;2022-12-07T09:45:35;5.00;;;3.35;;
16472;SDS011;8347;52.486;13.432;2022-12-07T09:48:25;5.22;;;3.22;;
16472;SDS011;8347;52.486;13.432;2022-12-07T09:51:23;4.05;;;3.03;;
16472;SDS011;8347;52.486;13.432;2022-12-07T09:54:12;6.57;;;3.28;;
16472;SDS011;8347;52.486;13.432;2022-12-07T09:57:00;4.10;;;3.17;;
16472;SDS011;8347;52.486;13.432;2022-12-07T09:59:47;2.85;;;2.63;;
16472;SDS011;8347;52.486;13.432;2022-12-07T10:02:37;3.95;;;2.80;;
16472;SDS011;8347;52.486;13.432;2022-12-07T10:05:29;6.90;;;2.67;;
16472;SDS011;8347;52.486;13.432;2022-12-07T10:08:16;9.50;;;3.83;;
16472;SDS011;8347;52.486;13.432;2022-12-07T10:11:03;3.83;;;3.28;;
16472;SDS011;8347;52.486;13.432;2022-12-07T10:13:53;5.13;;;3.40;;
16472;SDS011;8347;52.486;13.432;2022-12-07T10:16:40;5.63;;;3.72;;
16472;SDS011;8347;52.486;13.432;2022-12-07T10:19:30;4.32;;;2.90;;
16472;SDS011;8347;52.486;13.432;2022-12-07T10:22:18;5.50;;;3.65;;
16472;SDS011;8347;52.486;13.432;2022-12-07T10:25:19;4.53;;;2.78;;
16472;SDS011;8347;52.486;13.432;2022-12-07T10:30:57;3.13;;;2.40;;
16472;SDS011;8347;52.486;13.432;2022-12-07T10:33:57;4.95;;;3.13;;
16472;SDS011;8347;52.486;13.432;2022-12-07T10:36:44;3.97;;;2.90;;
16472;SDS011;8347;52.486;13.432;2022-12-07T10:39:31;4.43;;;2.85;;
16472;SDS011;8347;52.486;13.432;2022-12-07T10:42:27;7.10;;;4.75;;
16472;SDS011;8347;52.486;13.432;2022-12-07T10:45:16;4.82;;;4.03;;
16472;SDS011;8347;52.486;13.432;2022-12-07T10:48:06;6.40;;;3.88;;
16472;SDS011;8347;52.486;13.432;2022-12-07T10:53:51;5.00;;;3.33;;
16472;SDS011;8347;52.486;13.432;2022-12-07T10:56:58;11.13;;;4.85;;
16472;SDS011;8347;52.486;13.432;2022-12-07T10:59:57;12.30;;;6.03;;
16472;SDS011;8347;52.486;13.432;2022-12-07T11:02:50;8.25;;;5.63;;
16472;SDS011;8347;52.486;13.432;2022-12-07T11:05:49;7.20;;;5.68;;
16472;SDS011;8347;52.486;13.432;2022-12-07T11:08:46;6.75;;;4.63;;
16472;SDS011;8347;52.486;13.432;2022-12-07T11:11:51;8.02;;;4.85;;
16472;SDS011;8347;52.486;13.432;2022-12-07T11:14:50;6.47;;;4.63;;
16472;SDS011;8347;52.486;13.432;2022-12-07T11:17:44;5.43;;;4.55;;
16472;SDS011;8347;52.486;13.432;2022-12-07T11:20:40;9.65;;;5.90;;
16472;SDS011;8347;52.486;13.432;2022-12-07T11:23:41;9.93;;;5.05;;
16472;SDS011;8347;52.486;13.432;2022-12-07T11:29:37;7.53;;;5.15;;
16472;SDS011;8347;52.486;13.432;2022-12-07T11:35:38;8.30;;;5.13;;
16472;SDS011;8347;52.486;13.432;2022-12-07T11:38:38;7.63;;;4.80;;
16472;SDS011;8347;52.486;13.432;2022-12-07T11:41:30;8.30;;;5.30;;
16472;SDS011;8347;52.486;13.432;2022-12-07T11:44:31;7.65;;;4.97;;
16472;SDS011;8347;52.486;13.432;2022-12-07T11:47:21;11.70;;;5.97;;
16472;SDS011;8347;52.486;13.432;2022-12-07T11:50:21;13.38;;;5.78;;
16472;SDS011;8347;52.486;13.432;2022-12-07T11:53:25;7.55;;;5.10;;
16472;SDS011;8347;52.486;13.432;2022-12-07T11:56:16;6.63;;;4.75;;
16472;SDS011;8347;52.486;13.432;2022-12-07T11:59:16;6.22;;;4.32;;
16472;SDS011;8347;52.486;13.432;2022-12-07T12:02:16;8.38;;;4.95;;
16472;SDS011;8347;52.486;13.432;2022-12-07T12:05:17;6.97;;;5.15;;
16472;SDS011;8347;52.486;13.432;2022-12-07T12:11:17;10.18;;;5.05;;
16472;SDS011;8347;52.486;13.432;2022-12-07T12:14:25;8.82;;;5.10;;
16472;SDS011;8347;52.486;13.432;2022-12-07T12:17:20;8.10;;;4.15;;
16472;SDS011;8347;52.486;13.432;2022-12-07T12:20:23;16.25;;;8.00;;
16472;SDS011;8347;52.486;13.432;2022-12-07T12:26:21;12.77;;;6.25;;
16472;SDS011;8347;52.486;13.432;2022-12-07T12:29:20;11.40;;;4.97;;
16472;SDS011;8347;52.486;13.432;2022-12-07T12:32:17;7.57;;;4.18;;
16472;SDS011;8347;52.486;13.432;2022-12-07T12:38:30;8.30;;;3.88;;
16472;SDS011;8347;52.486;13.432;2022-12-07T12:50:24;9.13;;;4.70;;
16472;SDS011;8347;52.486;13.432;2022-12-07T12:53:13;8.32;;;4.82;;
16472;SDS011;8347;52.486;13.432;2022-12-07T12:56:21;13.00;;;4.97;;
16472;SDS011;8347;52.486;13.432;2022-12-07T12:59:19;8.38;;;4.50;;
16472;SDS011;8347;52.486;13.432;2022-12-07T13:05:02;7.88;;;4.53;;
16472;SDS011;8347;52.486;13.432;2022-12-07T13:07:59;9.07;;;4.82;;
16472;SDS011;8347;52.486;13.432;2022-12-07T13:11:15;7.65;;;3.60;;
16472;SDS011;8347;52.486;13.432;2022-12-07T13:20:39;10.52;;;3.70;;
16472;SDS011;8347;52.486;13.432;2022-12-07T13:23:30;6.97;;;4.10;;
16472;SDS011;8347;52.486;13.432;2022-12-07T13:29:17;10.50;;;4.78;;
16472;SDS011;8347;52.486;13.432;2022-12-07T13:32:17;11.43;;;5.10;;
16472;SDS011;8347;52.486;13.432;2022-12-07T13:35:27;13.25;;;4.97;;
16472;SDS011;8347;52.486;13.432;2022-12-07T13:38:16;11.68;;;6.10;;
16472;SDS011;8347;52.486;13.432;2022-12-07T13:41:17;11.25;;;5.28;;
16472;SDS011;8347;52.486;13.432;2022-12-07T13:44:14;10.73;;;5.20;;
16472;SDS011;8347;52.486;13.432;2022-12-07T13:47:18;12.93;;;5.00;;
16472;SDS011;8347;52.486;13.432;2022-12-07T13:50:28;8.10;;;3.67;;
16472;SDS011;8347;52.486;13.432;2022-12-07T13:53:15;12.57;;;6.47;;
16472;SDS011;8347;52.486;13.432;2022-12-07T13:56:01;12.55;;;5.15;;
16472;SDS011;8347;52.486;13.432;2022-12-07T13:58:48;12.52;;;5.15;;
16472;SDS011;8347;52.486;13.432;2022-12-07T14:01:35;9.52;;;4.60;;
16472;SDS011;8347;52.486;13.432;2022-12-07T14:04:33;6.60;;;3.80;;
16472;SDS011;8347;52.486;13.432;2022-12-07T14:07:24;10.63;;;4.40;;
16472;SDS011;8347;52.486;13.432;2022-12-07T14:10:28;7.95;;;3.67;;
16472;SDS011;8347;52.486;13.432;2022-12-07T14:13:30;6.22;;;3.03;;
16472;SDS011;8347;52.486;13.432;2022-12-07T14:16:40;4.80;;;2.42;;
16472;SDS011;8347;52.486;13.432;2022-12-07T14:19:44;5.28;;;2.85;;
16472;SDS011;8347;52.486;13.432;2022-12-07T14:22:38;10.60;;;3.85;;
16472;SDS011;8347;52.486;13.432;2022-12-07T14:25:25;11.23;;;4.97;;
16472;SDS011;8347;52.486;13.432;2022-12-07T14:28:29;14.50;;;5.18;;
16472;SDS011;8347;52.486;13.432;2022-12-07T14:31:22;11.73;;;4.57;;
16472;SDS011;8347;52.486;13.432;2022-12-07T14:34:13;10.18;;;3.47;;
16472;SDS011;8347;52.486;13.432;2022-12-07T14:36:59;9.90;;;3.60;;
16472;SDS011;8347;52.486;13.432;2022-12-07T14:39:46;14.98;;;5.45;;
16472;SDS011;8347;52.486;13.432;2022-12-07T14:42:33;10.90;;;5.75;;
16472;SDS011;8347;52.486;13.432;2022-12-07T14:45:21;11.18;;;5.53;;
16472;SDS011;8347;52.486;13.432;2022-12-07T14:48:10;12.68;;;4.68;;
16472;SDS011;8347;52.486;13.432;2022-12-07T14:50:57;8.65;;;3.78;;
16472;SDS011;8347;52.486;13.432;2022-12-07T14:53:46;9.27;;;3.97;;
16472;SDS011;8347;52.486;13.432;2022-12-07T14:56:34;9.35;;;3.70;;
16472;SDS011;8347;52.486;13.432;2022-12-07T14:59:20;8.15;;;3.50;;
16472;SDS011;8347;52.486;13.432;2022-12-07T15:02:08;8.27;;;4.40;;
16472;SDS011;8347;52.486;13.432;2022-12-07T15:04:55;8.63;;;3.25;;
16472;SDS011;8347;52.486;13.432;2022-12-07T15:07:43;8.73;;;3.38;;
16472;SDS011;8347;52.486;13.432;2022-12-07T15:10:32;5.88;;;3.00;;
16472;SDS011;8347;52.486;13.432;2022-12-07T15:13:19;11.73;;;4.70;;
16472;SDS011;8347;52.486;13.432;2022-12-07T15:16:25;11.10;;;5.35;;
16472;SDS011;8347;52.486;13.432;2022-12-07T15:19:12;17.80;;;6.75;;
16472;SDS011;8347;52.486;13.432;2022-12-07T15:22:00;13.68;;;5.68;;
16472;SDS011;8347;52.486;13.432;2022-12-07T15:24:46;15.27;;;4.55;;
16472;SDS011;8347;52.486;13.432;2022-12-07T15:27:33;13.68;;;3.58;;
16472;SDS011;8347;52.486;13.432;2022-12-07T15:30:19;16.88;;;6.35;;
16472;SDS011;8347;52.486;13.432;2022-12-07T15:33:06;14.32;;;6.35;;
16472;SDS011;8347;52.486;13.432;2022-12-07T15:35:53;9.77;;;4.88;;
16472;SDS011;8347;52.486;13.432;2022-12-07T15:38:39;9.02;;;4.15;;
16472;SDS011;8347;52.486;13.432;2022-12-07T15:41:26;10.20;;;4.47;;
16472;SDS011;8347;52.486;13.432;2022-12-07T15:44:13;6.75;;;3.45;;
16472;SDS011;8347;52.486;13.432;2022-12-07T15:47:18;8.30;;;4.13;;
16472;SDS011;8347;52.486;13.432;2022-12-07T15:50:07;8.52;;;3.35;;
16472;SDS011;8347;52.486;13.432;2022-12-07T15:52:54;10.45;;;3.63;;
16472;SDS011;8347;52.486;13.432;2022-12-07T15:55:41;12.57;;;3.50;;
16472;SDS011;8347;52.486;13.432;2022-12-07T15:58:27;12.07;;;4.82;;
16472;SDS011;8347;52.486;13.432;2022-12-07T16:01:15;11.80;;;5.00;;
16472;SDS011;8347;52.486;13.432;2022-12-07T16:04:02;19.58;;;7.53;;
16472;SDS011;8347;52.486;13.432;2022-12-07T16:06:48;19.67;;;6.95;;
16472;SDS011;8347;52.486;13.432;2022-12-07T16:09:36;14.10;;;6.18;;
16472;SDS011;8347;52.486;13.432;2022-12-07T16:12:23;16.08;;;6.60;;
16472;SDS011;8347;52.486;13.432;2022-12-07T16:15:10;20.00;;;6.75;;
16472;SDS011;8347;52.486;13.432;2022-12-07T16:17:57;13.18;;;5.70;;
16472;SDS011;8347;52.486;13.432;2022-12-07T16:20:47;14.25;;;4.65;;
16472;SDS011;8347;52.486;13.432;2022-12-07T16:23:33;14.85;;;5.22;;
16472;SDS011;8347;52.486;13.432;2022-12-07T16:26:20;18.10;;;6.35;;
16472;SDS011;8347;52.486;13.432;2022-12-07T16:29:09;10.82;;;5.65;;
16472;SDS011;8347;52.486;13.432;2022-12-07T16:31:57;12.75;;;6.43;;
16472;SDS011;8347;52.486;13.432;2022-12-07T16:34:43;14.15;;;7.00;;
16472;SDS011;8347;52.486;13.432;2022-12-07T16:37:30;14.27;;;5.72;;
16472;SDS011;8347;52.486;13.432;2022-12-07T16:40:17;9.85;;;4.78;;
16472;SDS011;8347;52.486;13.432;2022-12-07T16:43:03;9.75;;;4.85;;
16472;SDS011;8347;52.486;13.432;2022-12-07T16:45:49;10.65;;;4.38;;
16472;SDS011;8347;52.486;13.432;2022-12-07T16:48:37;10.80;;;4.03;;
16472;SDS011;8347;52.486;13.432;2022-12-07T16:51:24;10.57;;;4.07;;
16472;SDS011;8347;52.486;13.432;2022-12-07T16:54:11;18.42;;;6.60;;
16472;SDS011;8347;52.486;13.432;2022-12-07T16:56:58;19.92;;;6.97;;
16472;SDS011;8347;52.486;13.432;2022-12-07T16:59:45;6.93;;;4.35;;
16472;SDS011;8347;52.486;13.432;2022-12-07T17:02:31;8.07;;;3.72;;
16472;SDS011;8347;52.486;13.432;2022-12-07T17:05:17;11.73;;;5.07;;
16472;SDS011;8347;52.486;13.432;2022-12-07T17:08:04;13.38;;;6.35;;
16472;SDS011;8347;52.486;13.432;2022-12-07T17:10:51;13.68;;;6.80;;
16472;SDS011;8347;52.486;13.432;2022-12-07T17:13:37;16.58;;;5.07;;
16472;SDS011;8347;52.486;13.432;2022-12-07T17:16:42;16.20;;;6.90;;
16472;SDS011;8347;52.486;13.432;2022-12-07T17:19:28;12.20;;;4.97;;
16472;SDS011;8347;52.486;13.432;2022-12-07T17:22:15;8.30;;;4.53;;
16472;SDS011;8347;52.486;13.432;2022-12-07T17:25:02;9.20;;;4.38;;
16472;SDS011;8347;52.486;13.432;2022-12-07T17:27:49;15.98;;;5.20;;
16472;SDS011;8347;52.486;13.432;2022-12-07T17:30:36;10.68;;;6.03;;
16472;SDS011;8347;52.486;13.432;2022-12-07T17:33:24;17.45;;;6.40;;
16472;SDS011;8347;52.486;13.432;2022-12-07T17:36:15;12.13;;;4.15;;
16472;SDS011;8347;52.486;13.432;2022-12-07T17:39:01;16.05;;;6.55;;
16472;SDS011;8347;52.486;13.432;2022-12-07T17:41:52;12.18;;;5.15;;
16472;SDS011;8347;52.486;13.432;2022-12-07T17:44:57;18.90;;;7.18;;
16472;SDS011;8347;52.486;13.432;2022-12-07T17:47:44;12.50;;;6.55;;
16472;SDS011;8347;52.486;13.432;2022-12-07T17:50:30;22.05;;;6.85;;
16472;SDS011;8347;52.486;13.432;2022-12-07T17:53:36;17.05;;;5.75;;
16472;SDS011;8347;52.486;13.432;2022-12-07T17:56:22;9.10;;;4.55;;
16472;SDS011;8347;52.486;13.432;2022-12-07T17:59:09;9.02;;;4.80;;